createdAt,value
2023-03-11T00:01:02.584Z,67.76
2023-03-11T00:03:29.012Z,69.50
2023-03-11T00:05:55.455Z,69.95
2023-03-11T00:08:21.913Z,68.81
2023-03-11T00:10:48.308Z,67.36
2023-03-11T00:13:14.667Z,68.53
2023-03-11T00:15:41.103Z,67.47
2023-03-11T00:18:07.553Z,66.33
2023-03-11T00:20:33.976Z,65.56
2023-03-11T00:23:00.402Z,68.26
2023-03-11T00:25:26.775Z,71.04
2023-03-11T00:27:53.153Z,72.84
2023-03-11T00:30:19.555Z,71.92
2023-03-11T00:32:45.987Z,73.38
2023-03-11T00:35:12.379Z,74.32
2023-03-11T00:37:38.848Z,73.33
2023-03-11T00:40:05.211Z,74.77
2023-03-11T00:42:31.589Z,75.30
2023-03-11T00:44:58.001Z,72.82
2023-03-11T00:47:24.475Z,73.43
2023-03-11T00:49:50.870Z,73.20
2023-03-11T00:52:17.272Z,72.45
2023-03-11T00:54:43.656Z,71.73
2023-03-11T00:57:10.050Z,69.62
2023-03-11T00:59:36.402Z,69.91
2023-03-11T01:02:02.786Z,69.49
2023-03-11T01:04:29.185Z,69.49
2023-03-11T01:06:55.559Z,68.53
2023-03-11T01:09:21.998Z,68.59
2023-03-11T01:11:48.378Z,70.58
2023-03-11T01:14:14.873Z,69.46
2023-03-11T01:16:41.307Z,68.80
2023-03-11T01:19:07.660Z,68.22
2023-03-11T01:21:34.108Z,67.67
2023-03-11T01:24:00.517Z,66.81
2023-03-11T01:26:26.907Z,68.90
2023-03-11T01:28:53.266Z,67.65
2023-03-11T01:31:19.693Z,67.30
2023-03-11T01:33:46.154Z,66.91
2023-03-11T01:36:12.683Z,66.15
2023-03-11T01:38:39.331Z,66.15
2023-03-11T01:41:05.756Z,66.10
2023-03-11T01:43:32.307Z,66.58
2023-03-11T01:45:58.684Z,67.25
2023-03-11T01:48:25.160Z,65.60
2023-03-11T01:50:51.557Z,67.14
2023-03-11T01:53:17.954Z,66.04
2023-03-11T01:55:44.343Z,66.38
2023-03-11T01:58:10.695Z,65.62
2023-03-11T02:00:37.072Z,65.17
2023-03-11T02:03:03.468Z,66.25
2023-03-11T02:05:29.866Z,67.23
2023-03-11T02:07:56.272Z,67.99
2023-03-11T02:10:22.650Z,67.69
2023-03-11T02:12:49.190Z,67.90
2023-03-11T02:15:15.568Z,67.11
2023-03-11T02:17:41.978Z,66.64
2023-03-11T02:20:08.346Z,66.12
2023-03-11T02:22:34.704Z,67.14
2023-03-11T02:25:01.078Z,66.99
2023-03-11T02:27:27.707Z,68.31
2023-03-11T02:29:54.064Z,68.33
2023-03-11T02:32:20.505Z,70.54
2023-03-11T02:34:46.974Z,69.08
2023-03-11T02:37:13.373Z,68.07
2023-03-11T02:39:39.803Z,67.22
2023-03-11T02:42:06.233Z,68.76
2023-03-11T02:44:32.645Z,69.30
2023-03-11T02:46:59.093Z,68.79
2023-03-11T02:49:25.539Z,68.35
2023-03-11T02:51:51.891Z,69.16
2023-03-11T02:54:18.401Z,67.81
2023-03-11T02:56:44.785Z,65.93
2023-03-11T02:59:11.153Z,65.66
2023-03-11T03:01:37.499Z,65.55
2023-03-11T03:04:03.949Z,66.08
2023-03-11T03:06:30.370Z,67.05
2023-03-11T03:08:56.742Z,66.30
2023-03-11T03:11:23.135Z,68.57
2023-03-11T03:13:49.487Z,68.93
2023-03-11T03:16:15.864Z,68.88
2023-03-11T03:18:42.273Z,68.44
2023-03-11T03:21:08.663Z,69.86
2023-03-11T03:23:35.053Z,69.08
2023-03-11T03:26:01.439Z,67.34
2023-03-11T03:28:27.830Z,67.45
2023-03-11T03:30:54.305Z,67.81
2023-03-11T03:33:20.663Z,67.37
2023-03-11T03:35:47.073Z,66.72
2023-03-11T03:38:13.488Z,67.03
2023-03-11T03:40:39.867Z,67.90
2023-03-11T03:43:06.247Z,67.58
2023-03-11T03:45:32.687Z,68.55
2023-03-11T03:47:59.075Z,67.84
2023-03-11T03:50:25.457Z,69.43
2023-03-11T03:52:51.816Z,71.09
2023-03-11T03:55:18.196Z,70.06
2023-03-11T03:57:44.603Z,69.76
2023-03-11T04:00:11.031Z,70.24
2023-03-11T04:02:37.471Z,68.43
2023-03-11T04:05:03.919Z,68.21
2023-03-11T04:07:30.302Z,68.21
2023-03-11T04:09:56.691Z,67.71
2023-03-11T04:12:23.104Z,67.67
2023-03-11T04:14:49.497Z,66.86
2023-03-11T04:17:15.958Z,66.45
2023-03-11T04:19:42.359Z,67.34
2023-03-11T04:22:08.757Z,67.06
2023-03-11T04:24:35.133Z,66.69
2023-03-11T04:27:01.501Z,66.35
2023-03-11T04:29:27.876Z,65.15
2023-03-11T04:31:54.250Z,65.04
2023-03-11T04:34:20.631Z,65.34
2023-03-11T04:36:47.042Z,65.58
2023-03-11T04:39:13.411Z,67.20
2023-03-11T04:41:39.780Z,67.72
2023-03-11T04:44:06.170Z,67.25
2023-03-11T04:46:32.648Z,66.88
2023-03-11T04:48:59.035Z,67.02
2023-03-11T04:51:25.509Z,67.55
2023-03-11T04:53:51.872Z,67.59
2023-03-11T04:56:18.413Z,67.51
2023-03-11T04:58:44.899Z,67.27
2023-03-11T05:01:11.367Z,66.47
2023-03-11T05:03:37.754Z,66.81
2023-03-11T05:06:04.133Z,66.75
2023-03-11T05:08:30.595Z,66.60
2023-03-11T05:10:56.984Z,68.75
2023-03-11T05:13:23.367Z,67.66
2023-03-11T05:15:49.790Z,68.47
2023-03-11T05:18:16.228Z,69.22
2023-03-11T05:20:42.610Z,69.38
2023-03-11T05:23:08.995Z,68.13
2023-03-11T05:25:35.389Z,68.11
2023-03-11T05:28:01.767Z,67.71
2023-03-11T05:30:28.134Z,66.53
2023-03-11T05:32:54.646Z,67.11
2023-03-11T05:35:21.164Z,67.67
2023-03-11T05:37:47.545Z,68.39
2023-03-11T05:40:14.055Z,67.98
2023-03-11T05:42:40.556Z,68.68
2023-03-11T05:45:06.922Z,69.45
2023-03-11T05:47:33.301Z,70.44
2023-03-11T05:49:59.761Z,70.90
2023-03-11T05:52:26.196Z,70.61
2023-03-11T05:54:52.557Z,71.17
2023-03-11T05:57:18.940Z,71.43
2023-03-11T05:59:45.320Z,70.12
2023-03-11T06:02:11.672Z,70.67
2023-03-11T06:04:38.137Z,70.65
2023-03-11T06:07:04.678Z,70.01
2023-03-11T06:09:31.051Z,69.60
2023-03-11T06:11:57.410Z,69.50
2023-03-11T06:14:23.789Z,68.80
2023-03-11T06:16:50.156Z,70.15
2023-03-11T06:19:16.515Z,69.55
2023-03-11T06:21:43.027Z,68.99
2023-03-11T06:24:09.476Z,69.24
2023-03-11T06:26:35.847Z,68.49
2023-03-11T06:29:02.204Z,68.91
2023-03-11T06:31:28.643Z,67.96
2023-03-11T06:33:55.254Z,67.74
2023-03-11T06:36:21.619Z,67.56
2023-03-11T06:38:48.004Z,67.17
2023-03-11T06:41:14.418Z,68.21
2023-03-11T06:43:40.777Z,69.79
2023-03-11T06:46:07.174Z,66.91
2023-03-11T06:48:33.855Z,68.08
2023-03-11T06:51:00.270Z,69.16
2023-03-11T06:53:26.634Z,70.35
2023-03-11T06:55:53.004Z,71.85
2023-03-11T06:58:19.408Z,72.73
2023-03-11T07:00:45.852Z,72.99
2023-03-11T07:03:12.348Z,72.15
2023-03-11T07:05:38.766Z,71.93
2023-03-11T07:08:05.195Z,72.67
2023-03-11T07:10:31.626Z,71.88
2023-03-11T07:12:58.013Z,70.18
2023-03-11T07:15:24.397Z,72.01
2023-03-11T07:17:50.846Z,70.63
2023-03-11T07:20:17.745Z,69.76
2023-03-11T07:22:44.149Z,70.99
2023-03-11T07:25:10.531Z,71.96
2023-03-11T07:27:36.908Z,70.72
2023-03-11T07:30:03.288Z,70.25
2023-03-11T07:32:29.729Z,68.59
2023-03-11T07:34:56.161Z,68.22
2023-03-11T07:37:22.642Z,67.54
2023-03-11T07:39:49.073Z,66.98
2023-03-11T07:42:15.601Z,66.61
2023-03-11T07:44:41.992Z,66.05
2023-03-11T07:47:08.444Z,66.26
2023-03-11T07:49:34.849Z,64.51
2023-03-11T07:52:01.341Z,63.53
2023-03-11T07:54:27.708Z,64.21
2023-03-11T07:56:54.129Z,65.30
2023-03-11T07:59:20.551Z,64.64
2023-03-11T08:01:46.961Z,64.96
2023-03-11T08:04:14.690Z,65.87
2023-03-11T08:06:41.240Z,67.13
2023-03-11T08:09:07.636Z,66.11
2023-03-11T08:11:34.119Z,66.64
2023-03-11T08:14:00.512Z,66.10
2023-03-11T08:16:26.882Z,66.14
2023-03-11T08:18:53.344Z,70.00
2023-03-11T08:21:19.856Z,70.54
2023-03-11T08:23:46.301Z,72.79
2023-03-11T08:26:12.845Z,71.01
2023-03-11T08:28:39.381Z,70.41
2023-03-11T08:31:05.824Z,69.25
2023-03-11T08:33:32.243Z,69.26
2023-03-11T08:35:58.840Z,68.72
2023-03-11T08:38:25.553Z,68.86
2023-03-11T08:40:51.944Z,67.18
2023-03-11T08:43:18.329Z,66.97
2023-03-11T08:45:44.757Z,67.02
2023-03-11T08:48:11.233Z,65.28
2023-03-11T08:50:52.783Z,65.11
2023-03-11T08:53:20.513Z,64.56
2023-03-11T08:55:46.913Z,65.01
2023-03-11T08:58:13.304Z,64.82
2023-03-11T09:00:39.690Z,64.93
2023-03-11T09:03:06.162Z,64.67
2023-03-11T09:05:32.677Z,64.11
2023-03-11T09:07:59.075Z,63.07
2023-03-11T09:10:25.549Z,63.24
2023-03-11T09:12:51.968Z,63.67
2023-03-11T09:15:18.376Z,62.41
2023-03-11T09:17:44.790Z,62.75
2023-03-11T09:20:11.152Z,61.71
2023-03-11T09:22:37.553Z,61.57
2023-03-11T09:25:03.951Z,63.33
2023-03-11T09:27:30.474Z,64.26
2023-03-11T09:29:56.920Z,63.89
2023-03-11T09:32:23.380Z,63.43
2023-03-11T09:34:49.786Z,64.26
2023-03-11T09:37:16.179Z,63.82
2023-03-11T09:39:42.548Z,64.52
2023-03-11T09:42:08.992Z,63.87
2023-03-11T09:44:35.402Z,63.83
2023-03-11T09:47:02.021Z,63.63
2023-03-11T09:49:28.631Z,63.87
2023-03-11T09:51:55.113Z,64.07
2023-03-11T09:54:21.537Z,64.56
2023-03-11T09:56:47.969Z,64.42
2023-03-11T09:59:14.341Z,64.84
2023-03-11T10:01:41.097Z,66.27
2023-03-11T10:04:07.610Z,65.42
2023-03-11T10:06:34.032Z,65.89
2023-03-11T10:09:00.466Z,65.12
2023-03-11T10:11:26.852Z,65.80
2023-03-11T10:13:53.309Z,66.37
2023-03-11T10:16:19.758Z,65.94
2023-03-11T10:18:46.137Z,65.74
2023-03-11T10:21:12.505Z,64.97
2023-03-11T10:23:38.877Z,64.77
2023-03-11T10:26:05.301Z,65.99
2023-03-11T10:28:31.721Z,66.25
2023-03-11T10:30:58.101Z,65.90
2023-03-11T10:33:24.512Z,65.77
2023-03-11T10:35:50.889Z,67.42
2023-03-11T10:38:17.349Z,68.24
2023-03-11T10:40:43.780Z,68.01
2023-03-11T10:43:10.168Z,68.10
2023-03-11T10:45:36.645Z,67.15
2023-03-11T10:48:03.071Z,66.09
2023-03-11T10:50:29.453Z,65.77
2023-03-11T10:52:55.855Z,65.68
2023-03-11T10:55:22.385Z,64.37
2023-03-11T10:57:48.830Z,65.54
2023-03-11T11:00:15.234Z,65.21
2023-03-11T11:02:43.656Z,65.44
2023-03-11T11:05:10.461Z,65.63
2023-03-11T11:07:36.891Z,64.80
2023-03-11T11:10:03.423Z,64.32
2023-03-11T11:12:29.818Z,65.00
2023-03-11T11:14:56.202Z,63.96
2023-03-11T11:17:22.568Z,63.52
2023-03-11T11:19:49.047Z,62.99
2023-03-11T11:22:15.522Z,62.34
2023-03-11T11:24:42.056Z,62.36
2023-03-11T11:27:08.471Z,63.55
2023-03-11T11:29:35.245Z,64.11
2023-03-11T11:32:01.621Z,63.13
2023-03-11T11:34:27.985Z,63.48
2023-03-11T11:36:54.350Z,62.78
2023-03-11T11:39:20.740Z,63.96
2023-03-11T11:41:47.231Z,64.43
2023-03-11T11:44:13.673Z,64.53
2023-03-11T11:46:40.040Z,66.07
2023-03-11T11:49:06.422Z,63.83
2023-03-11T11:51:32.808Z,62.65
2023-03-11T11:53:59.217Z,61.86
2023-03-11T11:56:25.603Z,62.28
2023-03-11T11:58:52.026Z,62.64
2023-03-11T12:01:18.405Z,61.11
2023-03-11T12:03:44.786Z,61.84
2023-03-11T12:06:11.213Z,64.49
2023-03-11T12:08:37.627Z,65.66
2023-03-11T12:11:04.023Z,65.80
2023-03-11T12:13:30.408Z,65.94
2023-03-11T12:15:56.771Z,64.71
2023-03-11T12:18:23.201Z,64.12
2023-03-11T12:20:49.572Z,63.40
2023-03-11T12:23:15.987Z,62.68
2023-03-11T12:25:42.380Z,61.72
2023-03-11T12:28:08.781Z,61.37
2023-03-11T12:30:35.129Z,61.21
2023-03-11T12:33:01.496Z,61.67
2023-03-11T12:35:27.846Z,61.04
2023-03-11T12:37:54.231Z,60.80
2023-03-11T12:40:20.650Z,60.21
2023-03-11T12:42:47.104Z,59.56
2023-03-11T12:45:13.458Z,59.89
2023-03-11T12:47:39.849Z,60.27
2023-03-11T12:50:06.279Z,59.39
2023-03-11T12:52:32.669Z,59.23
2023-03-11T12:54:59.031Z,59.00
2023-03-11T12:57:25.406Z,57.96
2023-03-11T12:59:51.784Z,58.62
2023-03-11T13:02:18.175Z,59.01
2023-03-11T13:04:44.559Z,59.26
2023-03-11T13:07:10.985Z,59.00
2023-03-11T13:09:37.406Z,58.97
2023-03-11T13:12:03.799Z,59.35
2023-03-11T13:14:30.166Z,59.22
2023-03-11T13:16:56.636Z,58.82
2023-03-11T13:19:23.060Z,58.82
2023-03-11T13:21:49.441Z,60.01
2023-03-11T13:24:15.791Z,60.14
2023-03-11T13:26:42.181Z,59.06
2023-03-11T13:29:08.682Z,58.29
2023-03-11T13:31:35.152Z,58.59
2023-03-11T13:34:01.564Z,58.19
2023-03-11T13:36:27.957Z,58.39
2023-03-11T13:38:54.365Z,58.90
2023-03-11T13:41:20.746Z,57.97
2023-03-11T13:43:47.232Z,58.33
2023-03-11T13:46:13.653Z,58.63
2023-03-11T13:48:40.081Z,58.72
2023-03-11T13:51:06.490Z,58.44
2023-03-11T13:53:32.873Z,57.73
2023-03-11T13:55:59.237Z,57.92
2023-03-11T13:58:25.648Z,57.44
2023-03-11T14:00:52.130Z,57.19
2023-03-11T14:03:18.536Z,57.44
2023-03-11T14:05:44.914Z,57.40
2023-03-11T14:08:11.375Z,57.90
2023-03-11T14:10:37.754Z,59.32
2023-03-11T14:13:04.234Z,60.30
2023-03-11T14:15:30.644Z,60.96
2023-03-11T14:17:57.033Z,61.26
2023-03-11T14:20:23.553Z,60.62
2023-03-11T14:22:50.028Z,60.44
2023-03-11T14:25:16.404Z,60.51
2023-03-11T14:27:42.818Z,60.61
2023-03-11T14:30:09.193Z,60.36
2023-03-11T14:32:35.704Z,61.03
2023-03-11T14:35:02.360Z,60.72
2023-03-11T14:37:28.767Z,60.39
2023-03-11T14:39:55.114Z,60.48
2023-03-11T14:42:21.493Z,60.86
2023-03-11T14:44:47.966Z,60.43
2023-03-11T14:47:14.436Z,60.05
2023-03-11T14:49:40.864Z,60.04
2023-03-11T14:52:07.475Z,60.89
2023-03-11T14:54:33.849Z,59.76
2023-03-11T14:57:00.240Z,59.10
2023-03-11T14:59:26.723Z,60.59
2023-03-11T15:01:53.125Z,61.67
2023-03-11T15:04:21.236Z,61.44
2023-03-11T15:06:48.280Z,61.55
2023-03-11T15:09:14.662Z,61.22
2023-03-11T15:11:41.072Z,61.28
2023-03-11T15:14:07.535Z,62.77
2023-03-11T15:16:34.010Z,63.63
2023-03-11T15:19:00.486Z,62.85
2023-03-11T15:21:26.975Z,62.10
2023-03-11T15:23:53.383Z,61.69
2023-03-11T15:26:19.764Z,60.65
2023-03-11T15:28:46.246Z,60.67
2023-03-11T15:31:12.802Z,61.34
2023-03-11T15:33:39.305Z,61.46
2023-03-11T15:36:05.729Z,62.39
2023-03-11T15:38:32.241Z,62.43
2023-03-11T15:40:58.792Z,62.68
2023-03-11T15:43:25.301Z,62.60
2023-03-11T15:45:51.713Z,61.96
2023-03-11T15:48:18.178Z,61.78
2023-03-11T15:50:52.876Z,61.22
2023-03-11T15:53:20.429Z,62.05
2023-03-11T15:55:46.847Z,61.91
2023-03-11T15:58:13.209Z,62.30
2023-03-11T16:00:39.616Z,62.41
2023-03-11T16:03:06.085Z,62.76
2023-03-11T16:05:32.444Z,62.53
2023-03-11T16:07:58.809Z,63.00
2023-03-11T16:10:25.186Z,64.37
2023-03-11T16:12:51.576Z,62.73
2023-03-11T16:15:17.939Z,61.86
2023-03-11T16:17:49.602Z,62.79
2023-03-11T16:20:16.355Z,61.93
2023-03-11T16:22:42.795Z,62.27
2023-03-11T16:25:09.327Z,63.01
2023-03-11T16:27:35.745Z,62.62
2023-03-11T16:30:02.170Z,62.63
2023-03-11T16:32:28.745Z,62.56
2023-03-11T16:34:55.190Z,61.95
2023-03-11T16:37:21.567Z,62.46
2023-03-11T16:39:47.981Z,62.01
2023-03-11T16:42:14.361Z,62.41
2023-03-11T16:44:40.734Z,62.60
2023-03-11T16:47:07.197Z,63.61
2023-03-11T16:49:33.578Z,64.24
2023-03-11T16:51:59.993Z,63.89
2023-03-11T16:54:26.443Z,64.26
2023-03-11T16:56:52.847Z,64.22
2023-03-11T16:59:19.234Z,63.43
2023-03-11T17:01:45.615Z,65.03
2023-03-11T17:04:12.042Z,65.03
2023-03-11T17:06:38.421Z,65.10
2023-03-11T17:09:04.888Z,65.21
2023-03-11T17:11:31.265Z,64.65
2023-03-11T17:14:10.074Z,64.62
2023-03-11T17:16:41.924Z,63.95
2023-03-11T17:19:08.379Z,65.35
2023-03-11T17:21:34.779Z,65.07
2023-03-11T17:24:01.179Z,66.36
2023-03-11T17:26:27.570Z,65.60
2023-03-11T17:28:53.977Z,64.90
2023-03-11T17:31:20.407Z,64.53
2023-03-11T17:33:46.821Z,63.92
2023-03-11T17:36:13.242Z,63.85
2023-03-11T17:38:39.870Z,64.50
2023-03-11T17:41:06.347Z,63.97
2023-03-11T17:43:32.750Z,63.36
2023-03-11T17:45:59.141Z,64.01
2023-03-11T17:48:25.547Z,64.39
2023-03-11T17:50:51.984Z,64.02
2023-03-11T17:53:18.371Z,64.50
2023-03-11T17:55:45.025Z,65.41
2023-03-11T17:58:11.479Z,65.32
2023-03-11T18:00:37.877Z,65.16
2023-03-11T18:03:04.233Z,64.68
2023-03-11T18:05:30.689Z,65.26
2023-03-11T18:07:57.173Z,67.82
2023-03-11T18:10:23.569Z,66.34
2023-03-11T18:12:49.973Z,66.38
2023-03-11T18:15:16.337Z,66.59
2023-03-11T18:17:42.709Z,66.91
2023-03-11T18:20:09.132Z,67.92
2023-03-11T18:22:35.665Z,67.70
2023-03-11T18:25:02.090Z,66.57
2023-03-11T18:27:28.465Z,66.51
2023-03-11T18:29:54.933Z,67.20
2023-03-11T18:32:21.421Z,68.13
2023-03-11T18:34:47.815Z,67.04
2023-03-11T18:37:14.237Z,66.95
2023-03-11T18:39:40.724Z,67.36
2023-03-11T18:42:07.131Z,69.82
2023-03-11T18:44:35.832Z,68.74
2023-03-11T18:47:03.261Z,68.64
2023-03-11T18:49:29.648Z,67.94
2023-03-11T18:51:56.009Z,66.31
2023-03-11T18:54:22.387Z,65.32
2023-03-11T18:56:48.809Z,65.79
2023-03-11T18:59:15.206Z,66.66
2023-03-11T19:01:41.580Z,67.54
2023-03-11T19:04:07.990Z,66.62
2023-03-11T19:06:34.373Z,68.65
2023-03-11T19:09:00.802Z,69.56
2023-03-11T19:11:27.172Z,66.78
2023-03-11T19:13:53.537Z,67.27
2023-03-11T19:16:20.032Z,68.09
2023-03-11T19:18:46.456Z,68.64
2023-03-11T19:21:12.931Z,66.43
2023-03-11T19:23:39.382Z,66.41
2023-03-11T19:26:05.770Z,68.76
2023-03-11T19:28:32.136Z,69.16
2023-03-11T19:30:58.619Z,66.37
2023-03-11T19:33:25.177Z,66.25
2023-03-11T19:35:51.614Z,66.29
2023-03-11T19:38:18.164Z,66.43
2023-03-11T19:40:44.539Z,66.78
2023-03-11T19:43:10.977Z,67.79
2023-03-11T19:45:37.393Z,67.99
2023-03-11T19:48:03.782Z,67.47
2023-03-11T19:50:30.246Z,66.12
2023-03-11T19:52:56.711Z,68.38
2023-03-11T19:55:23.112Z,67.92
2023-03-11T19:57:49.496Z,67.38
2023-03-11T20:00:15.914Z,66.04
2023-03-11T20:02:42.326Z,66.50
2023-03-11T20:05:08.871Z,65.93
2023-03-11T20:07:35.422Z,67.70
2023-03-11T20:10:01.820Z,67.80
2023-03-11T20:12:28.226Z,67.50
2023-03-11T20:14:54.689Z,66.28
2023-03-11T20:17:21.082Z,65.63
2023-03-11T20:19:47.473Z,65.46
2023-03-11T20:22:13.877Z,65.89
2023-03-11T20:24:40.326Z,65.78
2023-03-11T20:27:06.739Z,65.93
2023-03-11T20:29:33.168Z,66.25
2023-03-11T20:31:59.607Z,65.86
2023-03-11T20:34:26.086Z,68.08
2023-03-11T20:36:52.520Z,67.24
2023-03-11T20:39:18.906Z,68.00
2023-03-11T20:41:45.381Z,67.35
2023-03-11T20:44:11.882Z,66.94
2023-03-11T20:46:38.349Z,66.27
2023-03-11T20:49:04.830Z,65.75
2023-03-11T20:51:31.294Z,65.47
2023-03-11T20:53:57.759Z,67.08
2023-03-11T20:56:26.560Z,67.35
2023-03-11T20:58:53.127Z,67.36
2023-03-11T21:01:19.639Z,68.77
2023-03-11T21:03:46.214Z,68.48
2023-03-11T21:06:12.731Z,68.03
2023-03-11T21:08:39.177Z,68.09
2023-03-11T21:11:08.719Z,67.82
2023-03-11T21:13:35.176Z,67.60
2023-03-11T21:16:01.965Z,70.70
2023-03-11T21:18:28.520Z,69.47
2023-03-11T21:20:55.214Z,69.31
2023-03-11T21:23:21.633Z,68.95
2023-03-11T21:25:48.162Z,69.13
2023-03-11T21:28:14.665Z,71.15
2023-03-11T21:30:41.166Z,71.58
2023-03-11T21:33:07.759Z,69.75
2023-03-11T21:35:34.638Z,69.57
2023-03-11T21:38:01.137Z,69.06
2023-03-11T21:40:27.623Z,71.36
2023-03-11T21:42:56.759Z,71.85
2023-03-11T21:45:23.190Z,69.43
2023-03-11T21:47:49.611Z,69.02
2023-03-11T21:50:16.033Z,68.46
2023-03-11T21:52:42.685Z,68.45
2023-03-11T21:55:09.634Z,67.56
2023-03-11T21:57:36.088Z,67.44
2023-03-11T22:00:04.533Z,67.00
2023-03-11T22:02:31.044Z,69.59
2023-03-11T22:04:57.779Z,68.81
2023-03-11T22:07:24.414Z,68.55
2023-03-11T22:09:50.975Z,69.02
2023-03-11T22:12:21.281Z,68.37
2023-03-11T22:14:48.020Z,67.56
2023-03-11T22:17:14.857Z,67.31
2023-03-11T22:19:41.373Z,67.09
2023-03-11T22:22:07.877Z,67.36
2023-03-11T22:24:34.264Z,69.06
2023-03-11T22:27:00.646Z,67.98
2023-03-11T22:29:27.025Z,67.70
2023-03-11T22:31:53.501Z,67.52
2023-03-11T22:34:19.917Z,67.68
2023-03-11T22:36:46.333Z,67.66
2023-03-11T22:39:12.715Z,66.95
2023-03-11T22:41:39.142Z,66.61
2023-03-11T22:44:06.723Z,67.02
2023-03-11T22:46:33.096Z,66.97
2023-03-11T22:48:59.585Z,67.48
2023-03-11T22:51:26.023Z,69.29
2023-03-11T22:53:52.426Z,68.26
2023-03-11T22:56:18.817Z,68.07
2023-03-11T22:58:45.224Z,72.75
2023-03-11T23:01:11.631Z,74.98
2023-03-11T23:03:38.260Z,73.98
2023-03-11T23:06:04.769Z,71.80
2023-03-11T23:08:31.211Z,70.24
2023-03-11T23:10:57.611Z,69.52
2023-03-11T23:13:24.002Z,69.74
2023-03-11T23:15:50.392Z,71.21
2023-03-11T23:18:16.819Z,72.33
2023-03-11T23:20:43.221Z,73.43
2023-03-11T23:23:09.595Z,73.56
2023-03-11T23:25:36.014Z,74.15
2023-03-11T23:28:02.434Z,73.85
2023-03-11T23:30:28.849Z,74.46
2023-03-11T23:32:55.274Z,73.64
2023-03-11T23:35:21.779Z,71.35
2023-03-11T23:37:48.174Z,70.83
2023-03-11T23:40:14.575Z,71.04
2023-03-11T23:42:40.962Z,71.56
2023-03-11T23:45:07.363Z,71.57
2023-03-11T23:47:33.758Z,71.78
2023-03-11T23:50:00.166Z,71.38
2023-03-11T23:52:26.555Z,72.70
2023-03-11T23:54:52.962Z,72.99
2023-03-11T23:57:19.321Z,72.57
2023-03-11T23:59:45.740Z,72.02
